Disclaimer

Please do not use the information listed here in-flight or in-navigation, as they are not provided to us by the airports but are provided by volunteers, so they might be outdated.

Search


Regions


Airport information page

Radio informations:
TOURS TWR - 118.3 MHz
TOURS GND - 122.1 MHz
TOURS APP - 121.0 MHz
TOURS INFO - 118.3 MHz

Airport informations:
Latitude: 47° 25' 56.00" N
Longitude: 000° 43' 39.38" E
Elevation: 357 feet - 109 meters
Operating hours: Remarks
Operating agency: Military
Timezone: UTC+1(+2DT) - Last Sunday in March to last Sunday in October
Fuel: Jet A1, without icing nhibitor.

100/130 MIL Spec, low lead, aviation gasoline (BLUE)

Runway information:
02/20 - 7887 x 148 feet< - >2404 x 45 meters

Recent METARs:
LFOT 201430Z AUTO 19002KT 9999 SCT039 BKN048 OVC056 03/00 Q1002 NOSIG
LFOT 201500Z AUTO 20003KT CAVOK 04/00 Q1002 NOSIG
LFOT 201530Z AUTO 16003KT CAVOK 03/01 Q1002 BECMG 4000 BR

Airport on the map: